Terminal Aerodrome Forecast
Issued by NWS Cleveland, OH

Home | Current Version | Previous Version | Graphics & Text | Print | Product List | Glossary On
Versions: 1 2 3 4 5 6 7 8 9 10 11 12 13
000
FTUS41 KCLE 262320
TAFYNG
TAF
KYNG 262320Z 2700/2724 28005KT P6SM OVC200
     FM270200 36005KT P6SM OVC200
     FM270900 04005KT 4SM BR BKN200
     FM271400 06005KT P6SM SCT200=

USA.gov is the U.S. government's official web portal to all federal, state and local government web resources and services.